sensor_id;sensor_type;location;lat;lon;timestamp;P1;durP1;ratioP1;P2;durP2;ratioP2
71317;SDS011;59106;44.706;18.310;2023-07-16T00:00:51;31.90;;;23.10;;
71317;SDS011;59106;44.706;18.310;2023-07-16T00:03:37;34.10;;;23.80;;
71317;SDS011;59106;44.706;18.310;2023-07-16T00:06:02;32.17;;;24.00;;
71317;SDS011;59106;44.706;18.310;2023-07-16T00:08:28;32.92;;;22.98;;
71317;SDS011;59106;44.706;18.310;2023-07-16T00:10:54;31.75;;;22.75;;
71317;SDS011;59106;44.706;18.310;2023-07-16T00:13:20;33.00;;;24.15;;
71317;SDS011;59106;44.706;18.310;2023-07-16T00:15:46;30.80;;;23.57;;
71317;SDS011;59106;44.706;18.310;2023-07-16T00:18:12;32.17;;;22.70;;
71317;SDS011;59106;44.706;18.310;2023-07-16T00:20:38;30.73;;;22.50;;
71317;SDS011;59106;44.706;18.310;2023-07-16T00:23:05;32.47;;;22.20;;
71317;SDS011;59106;44.706;18.310;2023-07-16T00:25:31;31.63;;;23.17;;
71317;SDS011;59106;44.706;18.310;2023-07-16T00:27:57;30.52;;;22.35;;
71317;SDS011;59106;44.706;18.310;2023-07-16T00:30:23;31.75;;;22.83;;
71317;SDS011;59106;44.706;18.310;2023-07-16T00:32:49;30.77;;;23.60;;
71317;SDS011;59106;44.706;18.310;2023-07-16T00:35:14;32.22;;;23.42;;
71317;SDS011;59106;44.706;18.310;2023-07-16T00:37:40;31.15;;;23.45;;
71317;SDS011;59106;44.706;18.310;2023-07-16T00:40:06;32.87;;;23.47;;
71317;SDS011;59106;44.706;18.310;2023-07-16T00:42:33;34.28;;;24.95;;
71317;SDS011;59106;44.706;18.310;2023-07-16T00:45:00;32.95;;;23.70;;
71317;SDS011;59106;44.706;18.310;2023-07-16T00:47:26;32.30;;;23.65;;
71317;SDS011;59106;44.706;18.310;2023-07-16T00:49:52;33.03;;;24.13;;
71317;SDS011;59106;44.706;18.310;2023-07-16T00:52:18;34.17;;;23.85;;
71317;SDS011;59106;44.706;18.310;2023-07-16T00:54:44;33.75;;;23.70;;
71317;SDS011;59106;44.706;18.310;2023-07-16T00:57:10;35.27;;;24.10;;
71317;SDS011;59106;44.706;18.310;2023-07-16T00:59:36;35.03;;;23.67;;
71317;SDS011;59106;44.706;18.310;2023-07-16T01:02:02;34.78;;;24.60;;
71317;SDS011;59106;44.706;18.310;2023-07-16T01:04:29;34.50;;;25.13;;
71317;SDS011;59106;44.706;18.310;2023-07-16T01:06:55;35.77;;;25.53;;
71317;SDS011;59106;44.706;18.310;2023-07-16T01:09:23;36.67;;;25.60;;
71317;SDS011;59106;44.706;18.310;2023-07-16T01:11:50;36.67;;;25.70;;
71317;SDS011;59106;44.706;18.310;2023-07-16T01:14:17;34.90;;;24.83;;
71317;SDS011;59106;44.706;18.310;2023-07-16T01:16:44;36.58;;;25.33;;
71317;SDS011;59106;44.706;18.310;2023-07-16T01:19:10;37.83;;;24.97;;
71317;SDS011;59106;44.706;18.310;2023-07-16T01:29:36;39.27;;;26.47;;
71317;SDS011;59106;44.706;18.310;2023-07-16T01:32:04;40.10;;;28.95;;
71317;SDS011;59106;44.706;18.310;2023-07-16T01:34:32;59.65;;;37.65;;
71317;SDS011;59106;44.706;18.310;2023-07-16T01:37:03;66.68;;;42.50;;
71317;SDS011;59106;44.706;18.310;2023-07-16T01:39:29;41.28;;;28.10;;
71317;SDS011;59106;44.706;18.310;2023-07-16T01:41:56;36.47;;;26.63;;
71317;SDS011;59106;44.706;18.310;2023-07-16T01:44:22;38.30;;;26.08;;
71317;SDS011;59106;44.706;18.310;2023-07-16T01:46:49;41.00;;;28.30;;
71317;SDS011;59106;44.706;18.310;2023-07-16T01:49:18;42.05;;;29.23;;
71317;SDS011;59106;44.706;18.310;2023-07-16T01:51:45;39.13;;;28.17;;
71317;SDS011;59106;44.706;18.310;2023-07-16T01:54:12;37.67;;;27.30;;
71317;SDS011;59106;44.706;18.310;2023-07-16T01:56:38;38.60;;;26.95;;
71317;SDS011;59106;44.706;18.310;2023-07-16T01:59:04;39.92;;;27.95;;
71317;SDS011;59106;44.706;18.310;2023-07-16T02:01:30;37.33;;;27.13;;
71317;SDS011;59106;44.706;18.310;2023-07-16T02:03:56;40.25;;;28.48;;
71317;SDS011;59106;44.706;18.310;2023-07-16T02:06:23;42.92;;;30.40;;
71317;SDS011;59106;44.706;18.310;2023-07-16T02:12:10;40.10;;;28.80;;
71317;SDS011;59106;44.706;18.310;2023-07-16T02:14:36;38.92;;;27.00;;
71317;SDS011;59106;44.706;18.310;2023-07-16T02:17:02;38.63;;;28.17;;
71317;SDS011;59106;44.706;18.310;2023-07-16T02:19:29;42.28;;;29.23;;
71317;SDS011;59106;44.706;18.310;2023-07-16T02:21:54;40.28;;;27.73;;
71317;SDS011;59106;44.706;18.310;2023-07-16T02:24:20;37.73;;;27.57;;
71317;SDS011;59106;44.706;18.310;2023-07-16T02:26:46;40.20;;;27.02;;
71317;SDS011;59106;44.706;18.310;2023-07-16T02:29:11;39.33;;;27.57;;
71317;SDS011;59106;44.706;18.310;2023-07-16T02:31:37;40.47;;;28.58;;
71317;SDS011;59106;44.706;18.310;2023-07-16T02:34:03;42.20;;;28.63;;
71317;SDS011;59106;44.706;18.310;2023-07-16T02:36:29;40.17;;;28.55;;
71317;SDS011;59106;44.706;18.310;2023-07-16T02:38:55;39.80;;;28.05;;
71317;SDS011;59106;44.706;18.310;2023-07-16T02:41:21;40.90;;;28.37;;
71317;SDS011;59106;44.706;18.310;2023-07-16T02:43:46;42.70;;;28.55;;
71317;SDS011;59106;44.706;18.310;2023-07-16T02:46:12;42.70;;;28.67;;
71317;SDS011;59106;44.706;18.310;2023-07-16T02:48:38;40.00;;;28.37;;
71317;SDS011;59106;44.706;18.310;2023-07-16T02:51:04;43.92;;;29.10;;
71317;SDS011;59106;44.706;18.310;2023-07-16T02:53:30;42.83;;;29.63;;
71317;SDS011;59106;44.706;18.310;2023-07-16T02:55:56;42.38;;;29.30;;
71317;SDS011;59106;44.706;18.310;2023-07-16T02:58:21;41.25;;;27.77;;
71317;SDS011;59106;44.706;18.310;2023-07-16T03:00:47;41.43;;;28.40;;
71317;SDS011;59106;44.706;18.310;2023-07-16T03:03:13;41.13;;;29.10;;
71317;SDS011;59106;44.706;18.310;2023-07-16T03:05:39;40.28;;;28.60;;
71317;SDS011;59106;44.706;18.310;2023-07-16T03:08:05;39.37;;;27.60;;
71317;SDS011;59106;44.706;18.310;2023-07-16T03:10:31;42.28;;;29.00;;
71317;SDS011;59106;44.706;18.310;2023-07-16T03:12:56;41.87;;;29.30;;
71317;SDS011;59106;44.706;18.310;2023-07-16T03:15:22;40.42;;;29.42;;
71317;SDS011;59106;44.706;18.310;2023-07-16T03:17:48;42.55;;;28.95;;
71317;SDS011;59106;44.706;18.310;2023-07-16T03:20:14;42.10;;;29.10;;
71317;SDS011;59106;44.706;18.310;2023-07-16T03:22:40;40.85;;;28.10;;
71317;SDS011;59106;44.706;18.310;2023-07-16T03:25:06;43.55;;;29.17;;
71317;SDS011;59106;44.706;18.310;2023-07-16T03:27:32;40.53;;;28.27;;
71317;SDS011;59106;44.706;18.310;2023-07-16T03:29:58;38.63;;;28.30;;
71317;SDS011;59106;44.706;18.310;2023-07-16T03:32:24;44.45;;;30.35;;
71317;SDS011;59106;44.706;18.310;2023-07-16T03:34:50;41.92;;;29.58;;
71317;SDS011;59106;44.706;18.310;2023-07-16T03:37:16;44.07;;;29.73;;
71317;SDS011;59106;44.706;18.310;2023-07-16T03:39:42;41.35;;;29.70;;
71317;SDS011;59106;44.706;18.310;2023-07-16T03:42:07;44.67;;;29.53;;
71317;SDS011;59106;44.706;18.310;2023-07-16T03:44:33;43.28;;;30.30;;
71317;SDS011;59106;44.706;18.310;2023-07-16T03:46:59;43.05;;;29.95;;
71317;SDS011;59106;44.706;18.310;2023-07-16T03:49:25;42.10;;;28.87;;
71317;SDS011;59106;44.706;18.310;2023-07-16T03:51:51;45.95;;;31.90;;
71317;SDS011;59106;44.706;18.310;2023-07-16T03:54:17;43.70;;;30.63;;
71317;SDS011;59106;44.706;18.310;2023-07-16T03:56:42;45.40;;;30.45;;
71317;SDS011;59106;44.706;18.310;2023-07-16T03:59:08;44.28;;;30.08;;
71317;SDS011;59106;44.706;18.310;2023-07-16T04:01:34;44.13;;;29.83;;
71317;SDS011;59106;44.706;18.310;2023-07-16T04:04:01;43.03;;;29.92;;
71317;SDS011;59106;44.706;18.310;2023-07-16T04:06:26;45.83;;;30.10;;
71317;SDS011;59106;44.706;18.310;2023-07-16T04:08:52;41.95;;;30.00;;
71317;SDS011;59106;44.706;18.310;2023-07-16T04:11:18;39.90;;;29.13;;
71317;SDS011;59106;44.706;18.310;2023-07-16T04:13:44;42.27;;;28.77;;
71317;SDS011;59106;44.706;18.310;2023-07-16T04:16:09;40.08;;;28.90;;
71317;SDS011;59106;44.706;18.310;2023-07-16T04:18:35;41.70;;;28.88;;
71317;SDS011;59106;44.706;18.310;2023-07-16T04:21:01;47.07;;;29.57;;
71317;SDS011;59106;44.706;18.310;2023-07-16T04:23:27;40.25;;;28.67;;
71317;SDS011;59106;44.706;18.310;2023-07-16T04:25:53;42.03;;;29.47;;
71317;SDS011;59106;44.706;18.310;2023-07-16T04:28:19;42.38;;;28.58;;
71317;SDS011;59106;44.706;18.310;2023-07-16T04:30:45;42.67;;;30.27;;
71317;SDS011;59106;44.706;18.310;2023-07-16T04:33:11;42.60;;;31.03;;
71317;SDS011;59106;44.706;18.310;2023-07-16T04:35:36;39.15;;;28.27;;
71317;SDS011;59106;44.706;18.310;2023-07-16T04:38:02;41.70;;;27.50;;
71317;SDS011;59106;44.706;18.310;2023-07-16T04:40:29;41.20;;;27.73;;
71317;SDS011;59106;44.706;18.310;2023-07-16T04:42:54;43.08;;;29.25;;
71317;SDS011;59106;44.706;18.310;2023-07-16T04:45:20;41.58;;;29.88;;
71317;SDS011;59106;44.706;18.310;2023-07-16T04:47:46;41.63;;;30.27;;
71317;SDS011;59106;44.706;18.310;2023-07-16T04:50:12;44.25;;;29.30;;
71317;SDS011;59106;44.706;18.310;2023-07-16T04:52:37;42.17;;;30.33;;
71317;SDS011;59106;44.706;18.310;2023-07-16T04:55:03;43.50;;;29.83;;
71317;SDS011;59106;44.706;18.310;2023-07-16T04:57:29;43.75;;;30.42;;
71317;SDS011;59106;44.706;18.310;2023-07-16T04:59:55;47.63;;;32.72;;
71317;SDS011;59106;44.706;18.310;2023-07-16T05:02:21;44.77;;;33.37;;
71317;SDS011;59106;44.706;18.310;2023-07-16T05:04:47;45.75;;;32.72;;
71317;SDS011;59106;44.706;18.310;2023-07-16T05:07:13;43.53;;;30.38;;
71317;SDS011;59106;44.706;18.310;2023-07-16T05:09:39;50.17;;;34.58;;
71317;SDS011;59106;44.706;18.310;2023-07-16T05:12:05;45.27;;;33.10;;
71317;SDS011;59106;44.706;18.310;2023-07-16T05:14:31;48.60;;;34.67;;
71317;SDS011;59106;44.706;18.310;2023-07-16T05:17:07;47.83;;;34.28;;
71317;SDS011;59106;44.706;18.310;2023-07-16T05:19:33;48.33;;;34.27;;
71317;SDS011;59106;44.706;18.310;2023-07-16T05:21:59;51.40;;;35.85;;
71317;SDS011;59106;44.706;18.310;2023-07-16T05:24:25;47.38;;;33.53;;
71317;SDS011;59106;44.706;18.310;2023-07-16T05:26:50;47.27;;;33.40;;
71317;SDS011;59106;44.706;18.310;2023-07-16T05:29:18;49.08;;;34.20;;
71317;SDS011;59106;44.706;18.310;2023-07-16T05:31:44;51.00;;;35.53;;
71317;SDS011;59106;44.706;18.310;2023-07-16T05:34:12;50.55;;;37.72;;
71317;SDS011;59106;44.706;18.310;2023-07-16T05:36:38;48.58;;;35.58;;
71317;SDS011;59106;44.706;18.310;2023-07-16T05:39:04;47.33;;;36.55;;
71317;SDS011;59106;44.706;18.310;2023-07-16T05:41:29;49.73;;;34.80;;
71317;SDS011;59106;44.706;18.310;2023-07-16T05:43:55;49.47;;;37.75;;
71317;SDS011;59106;44.706;18.310;2023-07-16T05:46:21;49.37;;;36.70;;
71317;SDS011;59106;44.706;18.310;2023-07-16T05:48:47;51.03;;;36.92;;
71317;SDS011;59106;44.706;18.310;2023-07-16T05:51:13;50.72;;;37.90;;
71317;SDS011;59106;44.706;18.310;2023-07-16T05:53:39;53.80;;;38.33;;
71317;SDS011;59106;44.706;18.310;2023-07-16T05:56:04;54.95;;;38.53;;
71317;SDS011;59106;44.706;18.310;2023-07-16T05:58:30;55.70;;;40.22;;
71317;SDS011;59106;44.706;18.310;2023-07-16T06:00:56;57.63;;;41.43;;
71317;SDS011;59106;44.706;18.310;2023-07-16T06:03:22;60.25;;;41.78;;
71317;SDS011;59106;44.706;18.310;2023-07-16T06:05:48;61.83;;;43.03;;
71317;SDS011;59106;44.706;18.310;2023-07-16T06:08:14;61.67;;;43.17;;
71317;SDS011;59106;44.706;18.310;2023-07-16T06:10:39;66.97;;;44.17;;
71317;SDS011;59106;44.706;18.310;2023-07-16T06:13:05;58.53;;;43.95;;
71317;SDS011;59106;44.706;18.310;2023-07-16T06:15:31;64.45;;;43.60;;
71317;SDS011;59106;44.706;18.310;2023-07-16T06:17:57;62.43;;;44.97;;
71317;SDS011;59106;44.706;18.310;2023-07-16T06:20:22;62.05;;;42.83;;
71317;SDS011;59106;44.706;18.310;2023-07-16T06:22:48;60.17;;;42.97;;
71317;SDS011;59106;44.706;18.310;2023-07-16T06:25:14;57.97;;;43.93;;
71317;SDS011;59106;44.706;18.310;2023-07-16T06:27:40;61.65;;;44.28;;
71317;SDS011;59106;44.706;18.310;2023-07-16T06:30:06;59.77;;;44.00;;
71317;SDS011;59106;44.706;18.310;2023-07-16T06:32:32;63.25;;;44.42;;
71317;SDS011;59106;44.706;18.310;2023-07-16T06:34:58;59.33;;;43.03;;
71317;SDS011;59106;44.706;18.310;2023-07-16T06:37:24;58.23;;;43.63;;
71317;SDS011;59106;44.706;18.310;2023-07-16T06:39:51;63.25;;;43.85;;
71317;SDS011;59106;44.706;18.310;2023-07-16T06:42:17;59.30;;;43.28;;
71317;SDS011;59106;44.706;18.310;2023-07-16T06:44:42;61.33;;;43.35;;
71317;SDS011;59106;44.706;18.310;2023-07-16T06:47:09;61.63;;;43.93;;
71317;SDS011;59106;44.706;18.310;2023-07-16T06:49:34;56.55;;;43.08;;
71317;SDS011;59106;44.706;18.310;2023-07-16T06:52:00;56.67;;;43.43;;
71317;SDS011;59106;44.706;18.310;2023-07-16T06:54:27;58.35;;;42.42;;
71317;SDS011;59106;44.706;18.310;2023-07-16T06:56:53;53.25;;;41.00;;
71317;SDS011;59106;44.706;18.310;2023-07-16T06:59:19;58.23;;;43.73;;
71317;SDS011;59106;44.706;18.310;2023-07-16T07:01:45;57.33;;;42.88;;
71317;SDS011;59106;44.706;18.310;2023-07-16T07:04:10;57.40;;;42.80;;
71317;SDS011;59106;44.706;18.310;2023-07-16T07:06:36;54.35;;;41.78;;
71317;SDS011;59106;44.706;18.310;2023-07-16T07:09:02;55.10;;;42.23;;
71317;SDS011;59106;44.706;18.310;2023-07-16T07:11:28;55.85;;;40.10;;
71317;SDS011;59106;44.706;18.310;2023-07-16T07:13:54;55.40;;;42.47;;
71317;SDS011;59106;44.706;18.310;2023-07-16T07:16:20;54.53;;;41.78;;
71317;SDS011;59106;44.706;18.310;2023-07-16T07:18:45;59.42;;;42.22;;
71317;SDS011;59106;44.706;18.310;2023-07-16T07:21:11;50.20;;;40.27;;
71317;SDS011;59106;44.706;18.310;2023-07-16T07:23:37;53.97;;;41.08;;
71317;SDS011;59106;44.706;18.310;2023-07-16T07:26:03;58.13;;;41.92;;
71317;SDS011;59106;44.706;18.310;2023-07-16T07:28:29;56.03;;;39.43;;
71317;SDS011;59106;44.706;18.310;2023-07-16T07:30:55;52.88;;;41.17;;
71317;SDS011;59106;44.706;18.310;2023-07-16T07:33:20;51.43;;;39.87;;
71317;SDS011;59106;44.706;18.310;2023-07-16T07:35:46;54.80;;;40.78;;
71317;SDS011;59106;44.706;18.310;2023-07-16T07:38:12;52.53;;;41.72;;
71317;SDS011;59106;44.706;18.310;2023-07-16T07:40:38;56.43;;;42.43;;
71317;SDS011;59106;44.706;18.310;2023-07-16T07:43:03;53.08;;;40.22;;
71317;SDS011;59106;44.706;18.310;2023-07-16T07:45:29;48.90;;;39.70;;
71317;SDS011;59106;44.706;18.310;2023-07-16T07:47:55;54.83;;;40.57;;
71317;SDS011;59106;44.706;18.310;2023-07-16T07:50:21;57.40;;;43.15;;
71317;SDS011;59106;44.706;18.310;2023-07-16T07:52:47;57.40;;;43.75;;
71317;SDS011;59106;44.706;18.310;2023-07-16T07:55:13;52.13;;;40.10;;
71317;SDS011;59106;44.706;18.310;2023-07-16T07:57:39;44.55;;;37.13;;
71317;SDS011;59106;44.706;18.310;2023-07-16T08:00:05;48.70;;;39.17;;
71317;SDS011;59106;44.706;18.310;2023-07-16T08:02:31;48.78;;;36.72;;
71317;SDS011;59106;44.706;18.310;2023-07-16T08:04:57;47.70;;;36.40;;
71317;SDS011;59106;44.706;18.310;2023-07-16T08:07:23;40.97;;;31.90;;
71317;SDS011;59106;44.706;18.310;2023-07-16T08:09:49;35.97;;;30.52;;
71317;SDS011;59106;44.706;18.310;2023-07-16T08:12:14;38.47;;;31.10;;
71317;SDS011;59106;44.706;18.310;2023-07-16T08:14:40;38.00;;;30.45;;
71317;SDS011;59106;44.706;18.310;2023-07-16T08:17:07;38.65;;;30.50;;
71317;SDS011;59106;44.706;18.310;2023-07-16T08:19:33;38.72;;;29.92;;
71317;SDS011;59106;44.706;18.310;2023-07-16T08:21:59;36.27;;;28.27;;
71317;SDS011;59106;44.706;18.310;2023-07-16T08:24:25;34.72;;;27.98;;
71317;SDS011;59106;44.706;18.310;2023-07-16T08:26:51;30.17;;;24.35;;
71317;SDS011;59106;44.706;18.310;2023-07-16T08:29:17;31.13;;;25.30;;
71317;SDS011;59106;44.706;18.310;2023-07-16T08:31:42;33.03;;;25.30;;
71317;SDS011;59106;44.706;18.310;2023-07-16T08:34:08;33.55;;;24.38;;
71317;SDS011;59106;44.706;18.310;2023-07-16T08:36:35;29.80;;;24.77;;
71317;SDS011;59106;44.706;18.310;2023-07-16T08:39:01;32.28;;;24.40;;
71317;SDS011;59106;44.706;18.310;2023-07-16T08:41:27;29.33;;;22.05;;
71317;SDS011;59106;44.706;18.310;2023-07-16T08:43:53;24.40;;;20.48;;
71317;SDS011;59106;44.706;18.310;2023-07-16T08:46:19;27.60;;;21.37;;
71317;SDS011;59106;44.706;18.310;2023-07-16T08:48:45;26.50;;;20.83;;
71317;SDS011;59106;44.706;18.310;2023-07-16T08:51:13;28.45;;;20.95;;
71317;SDS011;59106;44.706;18.310;2023-07-16T08:53:39;28.27;;;20.80;;
71317;SDS011;59106;44.706;18.310;2023-07-16T08:56:05;23.13;;;17.85;;
71317;SDS011;59106;44.706;18.310;2023-07-16T08:58:31;22.83;;;17.92;;
71317;SDS011;59106;44.706;18.310;2023-07-16T09:00:58;22.98;;;17.50;;
71317;SDS011;59106;44.706;18.310;2023-07-16T09:03:25;21.85;;;17.77;;
71317;SDS011;59106;44.706;18.310;2023-07-16T09:05:50;24.27;;;17.40;;
71317;SDS011;59106;44.706;18.310;2023-07-16T09:08:16;21.00;;;16.38;;
71317;SDS011;59106;44.706;18.310;2023-07-16T09:10:42;19.93;;;14.90;;
71317;SDS011;59106;44.706;18.310;2023-07-16T09:13:09;17.75;;;14.45;;
71317;SDS011;59106;44.706;18.310;2023-07-16T09:15:34;16.42;;;14.20;;
71317;SDS011;59106;44.706;18.310;2023-07-16T09:18:00;18.17;;;13.82;;
71317;SDS011;59106;44.706;18.310;2023-07-16T09:20:26;18.60;;;13.53;;
71317;SDS011;59106;44.706;18.310;2023-07-16T09:22:53;18.90;;;14.30;;
71317;SDS011;59106;44.706;18.310;2023-07-16T09:25:25;21.52;;;14.57;;
71317;SDS011;59106;44.706;18.310;2023-07-16T09:27:51;18.08;;;13.63;;
71317;SDS011;59106;44.706;18.310;2023-07-16T09:30:16;19.93;;;13.50;;
71317;SDS011;59106;44.706;18.310;2023-07-16T09:32:43;18.70;;;13.57;;
71317;SDS011;59106;44.706;18.310;2023-07-16T09:35:09;19.38;;;12.75;;
71317;SDS011;59106;44.706;18.310;2023-07-16T09:37:36;18.75;;;13.70;;
71317;SDS011;59106;44.706;18.310;2023-07-16T09:40:07;17.37;;;12.57;;
71317;SDS011;59106;44.706;18.310;2023-07-16T09:42:39;19.08;;;14.18;;
71317;SDS011;59106;44.706;18.310;2023-07-16T09:45:06;19.98;;;14.25;;
71317;SDS011;59106;44.706;18.310;2023-07-16T09:47:36;18.15;;;15.15;;
71317;SDS011;59106;44.706;18.310;2023-07-16T09:50:02;20.23;;;13.02;;
71317;SDS011;59106;44.706;18.310;2023-07-16T09:52:31;14.87;;;10.27;;
71317;SDS011;59106;44.706;18.310;2023-07-16T09:54:57;12.93;;;8.65;;
71317;SDS011;59106;44.706;18.310;2023-07-16T09:57:26;12.20;;;8.90;;
71317;SDS011;59106;44.706;18.310;2023-07-16T09:59:53;10.07;;;6.78;;
71317;SDS011;59106;44.706;18.310;2023-07-16T10:02:20;10.25;;;6.00;;
71317;SDS011;59106;44.706;18.310;2023-07-16T10:04:46;12.50;;;7.77;;
71317;SDS011;59106;44.706;18.310;2023-07-16T10:07:19;12.20;;;6.40;;
71317;SDS011;59106;44.706;18.310;2023-07-16T10:09:56;9.27;;;6.32;;
71317;SDS011;59106;44.706;18.310;2023-07-16T10:12:23;12.00;;;7.43;;
71317;SDS011;59106;44.706;18.310;2023-07-16T10:14:50;11.15;;;6.45;;
71317;SDS011;59106;44.706;18.310;2023-07-16T10:17:17;9.80;;;6.77;;
71317;SDS011;59106;44.706;18.310;2023-07-16T10:19:49;13.25;;;7.95;;
71317;SDS011;59106;44.706;18.310;2023-07-16T10:22:17;11.27;;;7.00;;
71317;SDS011;59106;44.706;18.310;2023-07-16T10:24:43;10.60;;;5.85;;
71317;SDS011;59106;44.706;18.310;2023-07-16T10:27:12;11.60;;;6.43;;
71317;SDS011;59106;44.706;18.310;2023-07-16T10:29:38;12.07;;;6.80;;
71317;SDS011;59106;44.706;18.310;2023-07-16T10:32:05;11.18;;;6.65;;
71317;SDS011;59106;44.706;18.310;2023-07-16T10:34:34;12.30;;;6.75;;
71317;SDS011;59106;44.706;18.310;2023-07-16T10:37:00;9.75;;;6.75;;
71317;SDS011;59106;44.706;18.310;2023-07-16T10:39:26;11.43;;;7.10;;
71317;SDS011;59106;44.706;18.310;2023-07-16T10:41:52;11.77;;;7.38;;
71317;SDS011;59106;44.706;18.310;2023-07-16T10:44:19;10.48;;;6.70;;
71317;SDS011;59106;44.706;18.310;2023-07-16T10:46:46;10.20;;;7.15;;
71317;SDS011;59106;44.706;18.310;2023-07-16T10:49:11;10.90;;;7.53;;
71317;SDS011;59106;44.706;18.310;2023-07-16T10:51:38;11.18;;;7.20;;
71317;SDS011;59106;44.706;18.310;2023-07-16T10:54:03;11.02;;;6.28;;
71317;SDS011;59106;44.706;18.310;2023-07-16T10:56:33;10.23;;;6.20;;
71317;SDS011;59106;44.706;18.310;2023-07-16T10:58:59;8.77;;;5.88;;
71317;SDS011;59106;44.706;18.310;2023-07-16T11:01:25;11.40;;;5.78;;
71317;SDS011;59106;44.706;18.310;2023-07-16T11:03:53;10.45;;;5.80;;
71317;SDS011;59106;44.706;18.310;2023-07-16T11:06:25;11.07;;;5.70;;
71317;SDS011;59106;44.706;18.310;2023-07-16T11:08:50;9.63;;;5.47;;
71317;SDS011;59106;44.706;18.310;2023-07-16T11:11:26;9.27;;;5.22;;
71317;SDS011;59106;44.706;18.310;2023-07-16T11:13:52;9.68;;;5.20;;
71317;SDS011;59106;44.706;18.310;2023-07-16T11:16:18;10.53;;;5.90;;
71317;SDS011;59106;44.706;18.310;2023-07-16T11:18:44;10.65;;;6.03;;
71317;SDS011;59106;44.706;18.310;2023-07-16T11:21:10;10.20;;;6.43;;
71317;SDS011;59106;44.706;18.310;2023-07-16T11:23:35;9.80;;;6.30;;
71317;SDS011;59106;44.706;18.310;2023-07-16T11:26:02;10.68;;;6.50;;
71317;SDS011;59106;44.706;18.310;2023-07-16T11:28:50;10.25;;;6.07;;
71317;SDS011;59106;44.706;18.310;2023-07-16T11:31:14;10.77;;;6.60;;
71317;SDS011;59106;44.706;18.310;2023-07-16T11:33:44;10.63;;;5.70;;
71317;SDS011;59106;44.706;18.310;2023-07-16T11:36:10;9.45;;;5.55;;
71317;SDS011;59106;44.706;18.310;2023-07-16T11:38:36;12.25;;;6.10;;
71317;SDS011;59106;44.706;18.310;2023-07-16T11:41:03;9.50;;;6.03;;
71317;SDS011;59106;44.706;18.310;2023-07-16T11:43:28;9.67;;;5.40;;
71317;SDS011;59106;44.706;18.310;2023-07-16T11:45:54;10.65;;;5.57;;
71317;SDS011;59106;44.706;18.310;2023-07-16T11:48:20;12.13;;;6.03;;
71317;SDS011;59106;44.706;18.310;2023-07-16T11:50:46;10.27;;;6.07;;
71317;SDS011;59106;44.706;18.310;2023-07-16T11:53:12;9.77;;;6.20;;
71317;SDS011;59106;44.706;18.310;2023-07-16T11:55:38;12.15;;;5.90;;
71317;SDS011;59106;44.706;18.310;2023-07-16T11:58:04;8.33;;;5.37;;
71317;SDS011;59106;44.706;18.310;2023-07-16T12:00:30;8.18;;;5.28;;
71317;SDS011;59106;44.706;18.310;2023-07-16T12:02:55;11.27;;;5.10;;
71317;SDS011;59106;44.706;18.310;2023-07-16T12:05:21;9.20;;;5.00;;
71317;SDS011;59106;44.706;18.310;2023-07-16T12:07:49;8.85;;;5.22;;
71317;SDS011;59106;44.706;18.310;2023-07-16T12:10:15;8.32;;;4.80;;
71317;SDS011;59106;44.706;18.310;2023-07-16T12:12:42;9.45;;;4.60;;
71317;SDS011;59106;44.706;18.310;2023-07-16T12:15:08;10.67;;;5.60;;
71317;SDS011;59106;44.706;18.310;2023-07-16T12:17:34;11.45;;;4.80;;
71317;SDS011;59106;44.706;18.310;2023-07-16T12:20:00;10.40;;;5.10;;
71317;SDS011;59106;44.706;18.310;2023-07-16T12:22:26;8.68;;;5.45;;
71317;SDS011;59106;44.706;18.310;2023-07-16T12:24:53;8.75;;;5.00;;
71317;SDS011;59106;44.706;18.310;2023-07-16T12:27:18;8.27;;;4.77;;
71317;SDS011;59106;44.706;18.310;2023-07-16T12:29:46;10.40;;;5.30;;
71317;SDS011;59106;44.706;18.310;2023-07-16T12:32:12;8.10;;;5.07;;
71317;SDS011;59106;44.706;18.310;2023-07-16T12:34:38;9.80;;;5.63;;
71317;SDS011;59106;44.706;18.310;2023-07-16T12:37:04;9.43;;;5.22;;
71317;SDS011;59106;44.706;18.310;2023-07-16T12:39:30;8.45;;;5.15;;
71317;SDS011;59106;44.706;18.310;2023-07-16T12:41:56;11.83;;;5.50;;
71317;SDS011;59106;44.706;18.310;2023-07-16T12:44:22;9.18;;;5.47;;
71317;SDS011;59106;44.706;18.310;2023-07-16T12:46:48;8.67;;;5.60;;
71317;SDS011;59106;44.706;18.310;2023-07-16T12:49:14;11.38;;;5.97;;
71317;SDS011;59106;44.706;18.310;2023-07-16T12:51:40;10.23;;;5.85;;
71317;SDS011;59106;44.706;18.310;2023-07-16T12:54:06;10.50;;;5.85;;
71317;SDS011;59106;44.706;18.310;2023-07-16T12:56:32;10.90;;;6.00;;
71317;SDS011;59106;44.706;18.310;2023-07-16T12:58:58;10.65;;;6.05;;
71317;SDS011;59106;44.706;18.310;2023-07-16T13:01:24;10.00;;;5.78;;
71317;SDS011;59106;44.706;18.310;2023-07-16T13:03:50;11.63;;;5.50;;
71317;SDS011;59106;44.706;18.310;2023-07-16T13:06:16;9.68;;;5.85;;
71317;SDS011;59106;44.706;18.310;2023-07-16T13:08:42;8.77;;;5.40;;
71317;SDS011;59106;44.706;18.310;2023-07-16T13:11:07;10.03;;;5.67;;
71317;SDS011;59106;44.706;18.310;2023-07-16T13:13:33;9.60;;;5.60;;
71317;SDS011;59106;44.706;18.310;2023-07-16T13:16:00;10.27;;;5.70;;
71317;SDS011;59106;44.706;18.310;2023-07-16T13:18:26;9.23;;;5.50;;
71317;SDS011;59106;44.706;18.310;2023-07-16T13:20:52;9.87;;;5.70;;
71317;SDS011;59106;44.706;18.310;2023-07-16T13:23:18;9.60;;;5.53;;
71317;SDS011;59106;44.706;18.310;2023-07-16T13:25:44;9.25;;;5.40;;
71317;SDS011;59106;44.706;18.310;2023-07-16T13:28:10;9.73;;;5.85;;
71317;SDS011;59106;44.706;18.310;2023-07-16T13:30:36;8.77;;;5.53;;
71317;SDS011;59106;44.706;18.310;2023-07-16T13:33:02;9.20;;;5.65;;
71317;SDS011;59106;44.706;18.310;2023-07-16T13:35:28;11.25;;;6.25;;
71317;SDS011;59106;44.706;18.310;2023-07-16T13:37:54;9.60;;;5.90;;
71317;SDS011;59106;44.706;18.310;2023-07-16T13:40:20;9.70;;;5.50;;
71317;SDS011;59106;44.706;18.310;2023-07-16T13:42:46;8.77;;;6.20;;
71317;SDS011;59106;44.706;18.310;2023-07-16T13:45:13;9.47;;;6.17;;
71317;SDS011;59106;44.706;18.310;2023-07-16T13:47:39;8.73;;;6.30;;
71317;SDS011;59106;44.706;18.310;2023-07-16T13:50:05;11.20;;;6.40;;
71317;SDS011;59106;44.706;18.310;2023-07-16T13:52:31;10.38;;;6.30;;
71317;SDS011;59106;44.706;18.310;2023-07-16T13:54:57;10.80;;;6.77;;
71317;SDS011;59106;44.706;18.310;2023-07-16T13:57:23;10.18;;;6.60;;
71317;SDS011;59106;44.706;18.310;2023-07-16T13:59:48;8.65;;;6.28;;
71317;SDS011;59106;44.706;18.310;2023-07-16T14:02:14;10.73;;;6.75;;
71317;SDS011;59106;44.706;18.310;2023-07-16T14:04:40;10.20;;;6.27;;
71317;SDS011;59106;44.706;18.310;2023-07-16T14:07:06;9.40;;;6.53;;
71317;SDS011;59106;44.706;18.310;2023-07-16T14:09:32;11.27;;;6.47;;
71317;SDS011;59106;44.706;18.310;2023-07-16T14:11:58;10.73;;;6.47;;
71317;SDS011;59106;44.706;18.310;2023-07-16T14:14:24;11.23;;;7.45;;
71317;SDS011;59106;44.706;18.310;2023-07-16T14:16:50;10.15;;;6.38;;
71317;SDS011;59106;44.706;18.310;2023-07-16T14:19:16;10.70;;;6.83;;